Flight Track Log - Related Links

Times and Time Zones

All times are in EDT time to prevent confusion due to time zone crossing. See the FLG3729 flight status page for this flight to view local times or setup timezone preferences in your user account.

Time Position Orientation Groundspeed Altitude Reporting Facility
EDT Latitude Longitude Course Direction KTS MPH feet Rate Location/Type
Thu 05:57:15 AM 42.7653 -73.8061 349° North 161 185 1,000  Level Boston Center
Thu 05:57:58 AM 42.8006 -73.8153 349° North 183 211 2,000 1,922 Climbing Boston Center
Thu 05:58:58 AM 42.8394 -73.8786 310° West 231 266 4,300 2,496 Climbing Boston Center
Thu 05:59:51 AM 42.8781 -73.9444 309° West 289 333 6,700 2,761 Climbing Boston Center
Thu 06:00:51 AM 42.9208 -74.0278 305° West 294 338 9,500 2,300 Climbing Boston Center
Thu 06:01:51 AM 42.9675 -74.1142 306° West 288 331 11,300 1,550 Climbing Boston Center
Thu 06:02:51 AM 42.9803 -74.2367 278° West 302 348 12,600 1,700 Climbing Boston Center
Thu 06:03:51 AM 42.9908 -74.3589 277° West 331 381 14,700 1,650 Climbing Boston Center
Thu 06:04:51 AM 43.0031 -74.4842 278° West 331 381 15,900 1,455 Climbing Boston Center
Thu 06:06:03 AM 43.0192 -74.6353 278° West 336 387 17,900 1,364 Climbing Boston Center
Thu 06:07:03 AM 43.0294 -74.7494 277° West 336 387 18,900 773 Climbing Boston Center
Thu 06:08:15 AM 43.0433 -74.8778 278° West 336 387 19,600 727 Climbing Boston Center
Thu 06:09:15 AM 43.0547 -75.0258 276° West 336 387 20,500 700 Climbing Boston Center
Thu 06:10:15 AM 43.0664 -75.1514 277° West 336 387 21,000 500 Climbing Boston Center
Thu 06:11:15 AM 43.0778 -75.2800 277° West 336 387 21,500 500 Climbing Boston Center
Thu 06:12:15 AM 43.0911 -75.4086 278° West 341 392 22,000 500 Climbing Boston Center
Thu 06:13:15 AM 43.1044 -75.5372 278° West 341 392 22,500 500 Climbing Boston Center
Thu 06:14:15 AM 43.1156 -75.6658 277° West 341 392 23,000 500 Climbing Boston Center
Thu 06:15:15 AM 43.1264 -75.7944 277° West 346 398 23,500 500 Climbing Boston Center
Thu 06:16:15 AM 43.1372 -75.9203 277° West 346 398 24,000 455 Climbing Boston Center
Thu 06:17:27 AM 43.1478 -76.0517 276° West 346 398 24,500 491 Climbing Boston Center
Thu 06:19:55 AM 43.1450 -76.3914 269° West 333 383 25,800 490 Climbing Cleveland Center
Thu 06:20:55 AM 43.1328 -76.5175 262° West 338 389 26,200 350 Climbing Cleveland Center
Thu 06:21:55 AM 43.1228 -76.6461 264° West 338 389 26,500 450 Climbing Cleveland Center
Thu 06:22:55 AM 43.1089 -76.7922 263° West 344 396 27,100 500 Climbing Cleveland Center
Thu 06:23:55 AM 43.0964 -76.9208 262° West 349 402 27,500 400 Climbing Cleveland Center
Thu 06:24:55 AM 43.0858 -77.0494 264° West 349 402 27,900 250 Climbing Cleveland Center
Thu 06:25:55 AM 43.0731 -77.1839 263° West 356 410 28,000 50 Climbing Cleveland Center
Thu 06:26:55 AM 43.0622 -77.3153 264° West 356 410 28,000  Level Cleveland Center
Thu 06:27:55 AM 43.0492 -77.4494 262° West 356 410 28,000  Level Cleveland Center
Thu 06:28:55 AM 43.0361 -77.5864 263° West 356 410 28,000  Level Cleveland Center
Thu 06:29:55 AM 43.0231 -77.7233 263° West 361 415 28,000  Level Cleveland Center
Thu 06:30:55 AM 43.0097 -77.8631 263° West 366 421 28,000  Level Cleveland Center
Thu 06:31:55 AM 42.9961 -77.9972 262° West 371 427 28,000  Level Cleveland Center
Thu 06:32:55 AM 42.9825 -78.1342 262° West 371 427 28,000  Level Cleveland Center
Thu 06:33:55 AM 42.9686 -78.2736 262° West 371 427 28,000  Level Cleveland Center
Thu 06:34:55 AM 42.9547 -78.4161 262° West 371 427 28,000  Level Cleveland Center
Thu 06:35:55 AM 42.9406 -78.5497 262° West 371 427 28,000  Level Cleveland Center
Thu 06:36:55 AM 42.9242 -78.6892 261° West 371 427 28,000  Level Cleveland Center
Thu 06:37:55 AM 42.9056 -78.8317 260° West 371 427 28,000  Level Cleveland Center
Thu 06:38:55 AM 42.8825 -78.9711 257° West 376 433 28,000  Level Cleveland Center
Thu 06:39:55 AM 42.8614 -79.1133 259° West 376 433 28,000  Level Cleveland Center
Thu 06:40:55 AM 42.8422 -79.2553 260° West 381 438 28,000  Level Cleveland Center
Thu 06:41:55 AM 42.8208 -79.3972 258° West 381 438 28,000  Level Cleveland Center
Thu 06:42:55 AM 42.8014 -79.5361 259° West 381 438 28,000  Level Cleveland Center
Thu 06:43:55 AM 42.7797 -79.6781 258° West 381 438 28,000  Level Cleveland Center
Thu 06:44:55 AM 42.7578 -79.8225 258° West 381 438 28,000  Level Cleveland Center
Thu 06:45:55 AM 42.7461 -79.9697 264° West 391 450 28,000  Level Cleveland Center
Thu 06:46:55 AM 42.7364 -80.1225 265° West 406 467 28,000  Level Cleveland Center
Thu 06:47:55 AM 42.7328 -80.2781 268° West 406 467 28,000  Level Cleveland Center
Thu 06:48:55 AM 42.7247 -80.4278 266° West 406 467 28,000  Level Cleveland Center
Thu 06:49:55 AM 42.7186 -80.5917 267° West 417 480 28,000  Level Cleveland Center
Thu 06:50:55 AM 42.7122 -80.7414 267° West 417 480 28,000 -50 Level Cleveland Center
Thu 06:51:55 AM 42.7058 -80.8969 267° West 419 482 27,900 -600 Descending Cleveland Center
Thu 06:52:55 AM 42.6886 -81.0578 262° West 419 482 26,800 -1,050 Descending Cleveland Center
Thu 06:53:55 AM 42.6689 -81.2186 261° West 435 501 25,800 -1,000 Descending Cleveland Center
Thu 06:54:55 AM 42.6492 -81.3850 261° West 440 506 24,800 -900 Descending Cleveland Center
Thu 06:55:55 AM 42.6314 -81.5428 261° West 442 509 24,000 -700 Descending Cleveland Center
Thu 06:56:55 AM 42.6153 -81.6864 261° West 437 503 23,400 -1,250 Descending Cleveland Center
Thu 06:57:55 AM 42.5950 -81.8356 260° West 418 481 21,500 -1,900 Descending Cleveland Center
Thu 06:58:55 AM 42.5767 -81.9789 260° West 406 467 19,600 -2,050 Descending Cleveland Center
Thu 06:59:55 AM 42.5583 -82.1278 261° West 406 467 17,400 -2,000 Descending Cleveland Center
Thu 07:00:55 AM 42.5417 -82.2683 261° West 400 460 15,600 -2,041 Descending Cleveland Center
Thu 07:01:32 AM 42.5297 -82.3722 261° West 373 429 14,100 -1,800 Descending Cleveland Center
Thu 07:01:55 AM 42.5228 -82.4058 254° West 388 447 13,800 -1,446 Descending Cleveland Center
Thu 07:02:55 AM 42.5017 -82.5575 259° West 377 434 12,100 -1,259 Descending Cleveland Center
Thu 07:03:16 AM 42.4883 -82.5992 247° West 363 418 12,100  Level Cleveland Center
Thu 07:03:55 AM 42.4686 -82.6547 244° Southwest 365 420 12,100  Level Cleveland Center
Thu 07:04:23 AM 42.4400 -82.7383 245° Southwest 359 413 12,100  Level Cleveland Center
Thu 07:04:55 AM 42.4225 -82.7856 243° Southwest 360 414 12,100  Level Cleveland Center
Thu 07:05:23 AM 42.3958 -82.8633 245° Southwest 359 413 12,100  Level Cleveland Center
Thu 07:05:55 AM 42.3783 -82.9050 240° Southwest 360 414 12,100  Level Cleveland Center
Thu 07:06:24 AM 42.3539 -82.9828 247° West 359 413 12,100  Level Cleveland Center
Thu 07:06:55 AM 42.3342 -83.0297 240° Southwest 360 414 12,100 -98 Level Cleveland Center
Thu 07:07:25 AM 42.3097 -83.0961 244° Southwest 306 352 12,000 -100 Descending Cleveland Center
Thu 07:07:55 AM 42.2964 -83.1322 243° Southwest 343 395 12,000 -689 Level Cleveland Center
Thu 07:08:26 AM 42.2661 -83.1786 229° Southwest 259 298 11,300 -900 Descending Cleveland Center
Thu 07:08:55 AM 42.2447 -83.2031 220° Southwest 285 328 11,100 -327 Descending Cleveland Center
Thu 07:09:21 AM 42.2108 -83.2267 207° Southwest 264 304 11,000 -1,100 Descending Cleveland Center
Thu 07:09:55 AM 42.1708 -83.2447 198° South 266 306 10,000 -1,636 Descending Cleveland Center
Thu 07:10:27 AM 42.1372 -83.2603 199° South 262 302 9,200 -1,700 Descending Cleveland Center
Thu 07:10:55 AM 42.0992 -83.2753 196° South 266 306 8,300 -2,164 Descending Cleveland Center
Thu 07:11:28 AM 42.0656 -83.2964 205° Southwest 250 288 7,000 -2,170 Descending Cleveland Center
Thu 07:12:29 AM 42.0022 -83.3300 202° Southwest 244 281 4,900 -1,426 Descending Cleveland Center
Thu 07:13:30 AM 41.9900 -83.4019 257° West 230 265 4,100 -393 Descending Cleveland Center
Thu 07:14:31 AM 42.0239 -83.4650 306° West 205 236 4,100 -295 Level Cleveland Center
Thu 07:15:32 AM 42.0722 -83.4447 17° North 159 183 3,500 -694 Descending Cleveland Center
Thu 07:16:32 AM 42.1064 -83.4183 30° Northeast 141 162 2,700 -800 Descending Cleveland Center

Login

Don't have an account? Register now (free) for customized features, flight alerts, and more!